ROMMA est une association bénévole à but non lucratif. Votre soutien est indispensable : ADHERER à ROMMA ou FAIRE un DON

Le Versoud - (38, Isère)

Vallée du Grésivaudan (220 m)   Longitude: 05° 51' 44" E   Latitude: 45° 13' 06" N Station partenaire n°6
 

Détail journalier du     <<     >>

Température Humidité Pression Vent Dir Rafale Dir. rafale Ensol.
Heure (°C) (%) (hPa) (km/h) (km/h) (min)
01:00 9.993101700---0
02:00 9.893101700---0
03:00 9.992101700---0
04:00 9.892101700---0
05:00 9.493101702SSE0
06:00 8.793101700---0
07:00 8.194101700---0
08:00 8.195101700---0
09:00 8.494101700---0
10:00 9.793101700---10
11:00 12.485101702S30
12:00 14.9731016011ESE50
13:00 17.0671015010NE20
14:00 18.6661015010NE5
15:00 20.258101408ENE30
16:00 22.150101400---25
17:00 20.2561014016OSO0
18:00 18.5681015011OSO0
19:00 16.478101500---0
20:00 15.880101500---0
21:00 15.879101500---0
22:00 15.483101602SO0
23:00 15.184101608SO0
minuit 14.985101703OSO0

Graphique du 17-10-2019

 

Serveur OMMA